SHT21A EGJB-EGLL
Flight info
| Callsign | SHT21A |
|---|---|
| Flight time | 0h 51m |
| Altitude | 23000 |
| Route | ORIST L982 ROXOG |
| Aircraft | A319/M-SDE3FGHIRWY/LB1 |
Departure
| Time | 2026-04-21 13:45 |
|---|---|
| Airport | Guernsey Airport (EGJB) |
Arrival
| Time | 2026-04-21 14:36 |
|---|---|
| Airport | London Heathrow Airport (EGLL) |
| Time | Latitude | Longitude | Altitude | Speed | Heading |
|---|---|---|---|---|---|
| 2026-04-21 13:26 | 49.43253 | -2.59620 | 328 ft | 0 kts | 177° |
| 2026-04-21 13:34 | 49.43270 | -2.59621 | 324 ft | 4 kts | 178° |
| 2026-04-21 13:34 | 49.43297 | -2.59622 | 326 ft | 4 kts | 178° |
| 2026-04-21 13:34 | 49.43324 | -2.59623 | 326 ft | 4 kts | 178° |
| 2026-04-21 13:35 | 49.43344 | -2.59624 | 325 ft | 4 kts | 197° |
| 2026-04-21 13:35 | 49.43361 | -2.59602 | 325 ft | 4 kts | 257° |
| 2026-04-21 13:35 | 49.43364 | -2.59563 | 327 ft | 3 kts | 268° |
| 2026-04-21 13:35 | 49.43364 | -2.59559 | 327 ft | 0 kts | 267° |
| 2026-04-21 13:39 | 49.43363 | -2.59571 | 328 ft | 2 kts | 268° |
| 2026-04-21 13:39 | 49.43363 | -2.59577 | 328 ft | 0 kts | 268° |
| 2026-04-21 13:40 | 49.43363 | -2.59578 | 328 ft | 0 kts | 268° |
| 2026-04-21 13:40 | 49.43362 | -2.59626 | 330 ft | 8 kts | 268° |
| 2026-04-21 13:41 | 49.43355 | -2.59724 | 328 ft | 10 kts | 257° |
| 2026-04-21 13:41 | 49.43345 | -2.59811 | 327 ft | 10 kts | 266° |
| 2026-04-21 13:41 | 49.43342 | -2.59902 | 321 ft | 6 kts | 268° |
| 2026-04-21 13:41 | 49.43340 | -2.60011 | 313 ft | 10 kts | 268° |
| 2026-04-21 13:42 | 49.43337 | -2.60126 | 307 ft | 17 kts | 267° |
| 2026-04-21 13:42 | 49.43330 | -2.60364 | 294 ft | 24 kts | 268° |
| 2026-04-21 13:42 | 49.43325 | -2.60568 | 296 ft | 18 kts | 267° |
| 2026-04-21 13:42 | 49.43338 | -2.60717 | 297 ft | 15 kts | 280° |
| 2026-04-21 13:43 | 49.43355 | -2.60860 | 305 ft | 10 kts | 281° |
| 2026-04-21 13:43 | 49.43364 | -2.60957 | 309 ft | 9 kts | 272° |
| 2026-04-21 13:43 | 49.43361 | -2.61071 | 311 ft | 14 kts | 266° |
| 2026-04-21 13:43 | 49.43358 | -2.61184 | 313 ft | 7 kts | 269° |
| 2026-04-21 13:44 | 49.43375 | -2.61277 | 314 ft | 9 kts | 304° |
| 2026-04-21 13:44 | 49.43413 | -2.61336 | 316 ft | 8 kts | 317° |
| 2026-04-21 13:44 | 49.43459 | -2.61358 | 316 ft | 4 kts | 9° |
| 2026-04-21 13:44 | 49.43467 | -2.61287 | 315 ft | 14 kts | 87° |
| 2026-04-21 13:45 | 49.43481 | -2.60728 | 309 ft | 97 kts | 88° |
| 2026-04-21 13:45 | 49.43516 | -2.59356 | 597 ft | 140 kts | 85° |
| 2026-04-21 13:45 | 49.43548 | -2.57827 | 1427 ft | 150 kts | 85° |
| 2026-04-21 13:45 | 49.43598 | -2.56100 | 1891 ft | 174 kts | 85° |
| 2026-04-21 13:46 | 49.43655 | -2.54182 | 2804 ft | 182 kts | 87° |
| 2026-04-21 13:46 | 49.43709 | -2.52212 | 3839 ft | 187 kts | 88° |
| 2026-04-21 13:46 | 49.43889 | -2.50202 | 4762 ft | 197 kts | 69° |
| 2026-04-21 13:46 | 49.44867 | -2.48661 | 5605 ft | 217 kts | 28° |
| 2026-04-21 13:47 | 49.46338 | -2.48008 | 6641 ft | 221 kts | 20° |
| 2026-04-21 13:47 | 49.47845 | -2.47454 | 7608 ft | 225 kts | 17° |
| 2026-04-21 13:47 | 49.49443 | -2.46873 | 8224 ft | 248 kts | 15° |
| 2026-04-21 13:47 | 49.51204 | -2.46225 | 8809 ft | 271 kts | 15° |
| 2026-04-21 13:48 | 49.53073 | -2.45535 | 9672 ft | 281 kts | 14° |
| 2026-04-21 13:48 | 49.54995 | -2.44817 | 10587 ft | 287 kts | 14° |
| 2026-04-21 13:48 | 49.56949 | -2.44077 | 11520 ft | 291 kts | 13° |
| 2026-04-21 13:48 | 49.58927 | -2.43319 | 12402 ft | 300 kts | 13° |
| 2026-04-21 13:49 | 49.61029 | -2.42518 | 12754 ft | 323 kts | 13° |
| 2026-04-21 13:49 | 49.63260 | -2.41667 | 13328 ft | 335 kts | 12° |
| 2026-04-21 13:49 | 49.65538 | -2.40795 | 14140 ft | 339 kts | 12° |
| 2026-04-21 13:49 | 49.67839 | -2.39870 | 14843 ft | 345 kts | 15° |
| 2026-04-21 13:50 | 49.70034 | -2.38282 | 15583 ft | 354 kts | 27° |
| 2026-04-21 13:50 | 49.71962 | -2.35855 | 16299 ft | 363 kts | 44° |
| 2026-04-21 13:50 | 49.73621 | -2.32868 | 17028 ft | 368 kts | 45° |
| 2026-04-21 13:50 | 49.75285 | -2.29826 | 17738 ft | 373 kts | 45° |
| 2026-04-21 13:51 | 49.76948 | -2.26795 | 18434 ft | 377 kts | 45° |
| 2026-04-21 13:51 | 49.78659 | -2.23690 | 18989 ft | 380 kts | 45° |
| 2026-04-21 13:51 | 49.80372 | -2.20582 | 19168 ft | 380 kts | 45° |
| 2026-04-21 13:51 | 49.82089 | -2.17463 | 19216 ft | 381 kts | 45° |
| 2026-04-21 13:52 | 49.83808 | -2.14326 | 19226 ft | 382 kts | 45° |
| 2026-04-21 13:52 | 49.85523 | -2.11184 | 19220 ft | 382 kts | 45° |
| 2026-04-21 13:52 | 49.87237 | -2.08037 | 19223 ft | 382 kts | 45° |
| 2026-04-21 13:52 | 49.88948 | -2.04893 | 19226 ft | 382 kts | 45° |
| 2026-04-21 13:53 | 49.90662 | -2.01741 | 19227 ft | 382 kts | 45° |
| 2026-04-21 13:53 | 49.92373 | -1.98589 | 19233 ft | 382 kts | 45° |
| 2026-04-21 13:53 | 49.94084 | -1.95428 | 19233 ft | 382 kts | 45° |
| 2026-04-21 13:53 | 49.95793 | -1.92273 | 19246 ft | 382 kts | 45° |
| 2026-04-21 13:54 | 49.97502 | -1.89123 | 19247 ft | 381 kts | 45° |
| 2026-04-21 13:54 | 49.99278 | -1.86079 | 19246 ft | 378 kts | 38° |
| 2026-04-21 13:54 | 50.01324 | -1.83585 | 19246 ft | 372 kts | 28° |
| 2026-04-21 13:54 | 50.03583 | -1.81674 | 19261 ft | 369 kts | 21° |
| 2026-04-21 13:55 | 50.05870 | -1.79876 | 19263 ft | 369 kts | 22° |
| 2026-04-21 13:55 | 50.08157 | -1.78066 | 19266 ft | 368 kts | 22° |
| 2026-04-21 13:55 | 50.10439 | -1.76251 | 19265 ft | 368 kts | 22° |
| 2026-04-21 13:55 | 50.12665 | -1.74250 | 19263 ft | 372 kts | 30° |
| 2026-04-21 13:56 | 50.14690 | -1.71703 | 19267 ft | 375 kts | 35° |
| 2026-04-21 13:56 | 50.16691 | -1.69097 | 19262 ft | 375 kts | 35° |
| 2026-04-21 13:56 | 50.18698 | -1.66506 | 19275 ft | 375 kts | 35° |
| 2026-04-21 13:56 | 50.20705 | -1.63914 | 19276 ft | 375 kts | 35° |
| 2026-04-21 13:57 | 50.22710 | -1.61319 | 19276 ft | 374 kts | 35° |
| 2026-04-21 13:57 | 50.24717 | -1.58726 | 19285 ft | 374 kts | 34° |
| 2026-04-21 13:57 | 50.26867 | -1.56506 | 19279 ft | 368 kts | 24° |
| 2026-04-21 13:57 | 50.29210 | -1.54963 | 19282 ft | 363 kts | 14° |
| 2026-04-21 13:58 | 50.31624 | -1.53794 | 19272 ft | 363 kts | 13° |
| 2026-04-21 13:58 | 50.34035 | -1.52618 | 19274 ft | 363 kts | 13° |
| 2026-04-21 13:58 | 50.36445 | -1.51435 | 19277 ft | 363 kts | 13° |
| 2026-04-21 13:58 | 50.38855 | -1.50249 | 19273 ft | 363 kts | 13° |
| 2026-04-21 13:59 | 50.41266 | -1.49064 | 19290 ft | 363 kts | 14° |
| 2026-04-21 13:59 | 50.43674 | -1.47879 | 19287 ft | 363 kts | 14° |
| 2026-04-21 13:59 | 50.46072 | -1.46703 | 19280 ft | 363 kts | 14° |
| 2026-04-21 13:59 | 50.48474 | -1.45521 | 19276 ft | 363 kts | 14° |
| 2026-04-21 14:00 | 50.50909 | -1.44325 | 19290 ft | 369 kts | 14° |
| 2026-04-21 14:00 | 50.53332 | -1.43083 | 19265 ft | 366 kts | 18° |
| 2026-04-21 14:00 | 50.55623 | -1.41325 | 19267 ft | 368 kts | 25° |
| 2026-04-21 14:00 | 50.57866 | -1.39390 | 19279 ft | 367 kts | 25° |
| 2026-04-21 14:01 | 50.60105 | -1.37466 | 19267 ft | 366 kts | 25° |
| 2026-04-21 14:01 | 50.62338 | -1.35555 | 19264 ft | 365 kts | 24° |
| 2026-04-21 14:01 | 50.64572 | -1.33643 | 19280 ft | 365 kts | 25° |
| 2026-04-21 14:01 | 50.66777 | -1.31753 | 19265 ft | 365 kts | 25° |
| 2026-04-21 14:02 | 50.68280 | -1.30456 | 19265 ft | 365 kts | 25° |
| 2026-04-21 14:02 | 50.71234 | -1.27898 | 19274 ft | 366 kts | 25° |
| 2026-04-21 14:02 | 50.73466 | -1.25960 | 19274 ft | 366 kts | 25° |
| 2026-04-21 14:03 | 50.77907 | -1.22009 | 19283 ft | 367 kts | 27° |
| 2026-04-21 14:03 | 50.80068 | -1.19854 | 19289 ft | 367 kts | 29° |
| 2026-04-21 14:03 | 50.82197 | -1.17627 | 19292 ft | 367 kts | 30° |
| 2026-04-21 14:03 | 50.84318 | -1.15372 | 19293 ft | 367 kts | 30° |
| 2026-04-21 14:04 | 50.86437 | -1.13120 | 19258 ft | 366 kts | 30° |
| 2026-04-21 14:04 | 50.88560 | -1.10880 | 18648 ft | 368 kts | 30° |
| 2026-04-21 14:04 | 50.90683 | -1.08660 | 17786 ft | 364 kts | 31° |
| 2026-04-21 14:04 | 50.92781 | -1.06481 | 16931 ft | 357 kts | 31° |
| 2026-04-21 14:05 | 50.94851 | -1.04339 | 16029 ft | 354 kts | 33° |
| 2026-04-21 14:05 | 50.96896 | -1.02224 | 15200 ft | 348 kts | 33° |
| 2026-04-21 14:05 | 50.98906 | -1.00140 | 14339 ft | 344 kts | 34° |
| 2026-04-21 14:05 | 51.00802 | -0.97881 | 13470 ft | 337 kts | 46° |
| 2026-04-21 14:06 | 51.02362 | -0.95181 | 12815 ft | 325 kts | 51° |
| 2026-04-21 14:06 | 51.03833 | -0.92554 | 12458 ft | 312 kts | 50° |
| 2026-04-21 14:06 | 51.05265 | -0.90013 | 12110 ft | 306 kts | 49° |
| 2026-04-21 14:06 | 51.06684 | -0.87498 | 11771 ft | 306 kts | 50° |
| 2026-04-21 14:07 | 51.08105 | -0.84981 | 11427 ft | 304 kts | 51° |
| 2026-04-21 14:07 | 51.09507 | -0.82487 | 11085 ft | 301 kts | 51° |
| 2026-04-21 14:07 | 51.10899 | -0.80004 | 10747 ft | 300 kts | 50° |
| 2026-04-21 14:07 | 51.12266 | -0.77566 | 10560 ft | 287 kts | 51° |
| 2026-04-21 14:08 | 51.13548 | -0.75276 | 10390 ft | 275 kts | 50° |
| 2026-04-21 14:08 | 51.14804 | -0.73024 | 10298 ft | 269 kts | 51° |
| 2026-04-21 14:08 | 51.16036 | -0.70806 | 10194 ft | 268 kts | 50° |
| 2026-04-21 14:08 | 51.17271 | -0.68583 | 9876 ft | 268 kts | 50° |
| 2026-04-21 14:09 | 51.18508 | -0.66363 | 9649 ft | 265 kts | 51° |
| 2026-04-21 14:09 | 51.19327 | -0.64896 | 9557 ft | 260 kts | 51° |
| 2026-04-21 14:09 | 51.20516 | -0.62765 | 9354 ft | 255 kts | 51° |
| 2026-04-21 14:09 | 51.21671 | -0.60689 | 9092 ft | 252 kts | 51° |
| 2026-04-21 14:10 | 51.22827 | -0.58604 | 8833 ft | 249 kts | 52° |
| 2026-04-21 14:10 | 51.23973 | -0.56539 | 8565 ft | 248 kts | 51° |
| 2026-04-21 14:10 | 51.25117 | -0.54473 | 8254 ft | 248 kts | 51° |
| 2026-04-21 14:10 | 51.26259 | -0.52412 | 7950 ft | 247 kts | 52° |
| 2026-04-21 14:11 | 51.27460 | -0.50529 | 7814 ft | 241 kts | 37° |
| 2026-04-21 14:11 | 51.29027 | -0.49664 | 7596 ft | 243 kts | 8° |
| 2026-04-21 14:11 | 51.30689 | -0.50218 | 7289 ft | 251 kts | 336° |
| 2026-04-21 14:11 | 51.31968 | -0.52165 | 7149 ft | 262 kts | 302° |
| 2026-04-21 14:12 | 51.32594 | -0.54929 | 7019 ft | 267 kts | 288° |
| 2026-04-21 14:12 | 51.33147 | -0.57764 | 6919 ft | 267 kts | 290° |
| 2026-04-21 14:12 | 51.33721 | -0.60582 | 6803 ft | 266 kts | 290° |
| 2026-04-21 14:12 | 51.34307 | -0.63404 | 6479 ft | 271 kts | 291° |
| 2026-04-21 14:13 | 51.34895 | -0.66237 | 6263 ft | 266 kts | 290° |
| 2026-04-21 14:13 | 51.35457 | -0.69035 | 6034 ft | 265 kts | 290° |
| 2026-04-21 14:13 | 51.36039 | -0.71820 | 5899 ft | 262 kts | 291° |
| 2026-04-21 14:13 | 51.36627 | -0.74561 | 5765 ft | 258 kts | 291° |
| 2026-04-21 14:14 | 51.37148 | -0.77282 | 5628 ft | 255 kts | 280° |
| 2026-04-21 14:14 | 51.37267 | -0.80101 | 5406 ft | 255 kts | 272° |
| 2026-04-21 14:14 | 51.37297 | -0.82953 | 5125 ft | 257 kts | 271° |
| 2026-04-21 14:14 | 51.37323 | -0.85820 | 4903 ft | 257 kts | 271° |
| 2026-04-21 14:15 | 51.37346 | -0.88649 | 4792 ft | 251 kts | 271° |
| 2026-04-21 14:15 | 51.37355 | -0.91419 | 4686 ft | 246 kts | 271° |
| 2026-04-21 14:15 | 51.37446 | -0.94111 | 4571 ft | 238 kts | 287° |
| 2026-04-21 14:15 | 51.38219 | -0.96315 | 4463 ft | 221 kts | 323° |
| 2026-04-21 14:16 | 51.39504 | -0.97336 | 4358 ft | 198 kts | 0° |
| 2026-04-21 14:16 | 51.40794 | -0.97006 | 4237 ft | 185 kts | 26° |
| 2026-04-21 14:16 | 51.41968 | -0.96204 | 4093 ft | 182 kts | 30° |
| 2026-04-21 14:16 | 51.43057 | -0.95245 | 3859 ft | 175 kts | 47° |
| 2026-04-21 14:17 | 51.43794 | -0.93725 | 3627 ft | 172 kts | 59° |
| 2026-04-21 14:17 | 51.44432 | -0.92104 | 3407 ft | 172 kts | 61° |
| 2026-04-21 14:17 | 51.45054 | -0.90472 | 3211 ft | 171 kts | 61° |
| 2026-04-21 14:17 | 51.45657 | -0.88871 | 3082 ft | 165 kts | 61° |
| 2026-04-21 14:18 | 51.46245 | -0.87322 | 2952 ft | 160 kts | 61° |
| 2026-04-21 14:18 | 51.46817 | -0.85807 | 2918 ft | 158 kts | 61° |
| 2026-04-21 14:18 | 51.47361 | -0.84320 | 2859 ft | 154 kts | 67° |
| 2026-04-21 14:18 | 51.47462 | -0.82641 | 2833 ft | 154 kts | 90° |
| 2026-04-21 14:19 | 51.47511 | -0.80931 | 2775 ft | 156 kts | 85° |
| 2026-04-21 14:19 | 51.47557 | -0.79205 | 2724 ft | 156 kts | 86° |
| 2026-04-21 14:19 | 51.47583 | -0.77483 | 2670 ft | 157 kts | 87° |
| 2026-04-21 14:19 | 51.47601 | -0.75706 | 2604 ft | 160 kts | 87° |
| 2026-04-21 14:20 | 51.47614 | -0.73924 | 2528 ft | 160 kts | 87° |
| 2026-04-21 14:20 | 51.47626 | -0.72137 | 2483 ft | 159 kts | 87° |
| 2026-04-21 14:20 | 51.47637 | -0.70397 | 2517 ft | 151 kts | 88° |
| 2026-04-21 14:20 | 51.47647 | -0.68760 | 2474 ft | 145 kts | 88° |
| 2026-04-21 14:21 | 51.47656 | -0.67164 | 2359 ft | 142 kts | 87° |
| 2026-04-21 14:21 | 51.47665 | -0.65597 | 2208 ft | 138 kts | 87° |
| 2026-04-21 14:21 | 51.47673 | -0.64107 | 2036 ft | 130 kts | 87° |
| 2026-04-21 14:21 | 51.47680 | -0.62711 | 1870 ft | 121 kts | 87° |
| 2026-04-21 14:22 | 51.47688 | -0.61362 | 1706 ft | 120 kts | 87° |
| 2026-04-21 14:22 | 51.47695 | -0.60036 | 1547 ft | 119 kts | 87° |
| 2026-04-21 14:22 | 51.47701 | -0.58716 | 1387 ft | 119 kts | 88° |
| 2026-04-21 14:22 | 51.47708 | -0.57399 | 1228 ft | 119 kts | 86° |
| 2026-04-21 14:23 | 51.47714 | -0.56083 | 1050 ft | 118 kts | 87° |
| 2026-04-21 14:23 | 51.47721 | -0.54753 | 888 ft | 118 kts | 86° |
| 2026-04-21 14:23 | 51.47727 | -0.53421 | 726 ft | 121 kts | 86° |
| 2026-04-21 14:23 | 51.47734 | -0.52101 | 562 ft | 115 kts | 88° |
| 2026-04-21 14:24 | 51.47745 | -0.50780 | 402 ft | 124 kts | 87° |
| 2026-04-21 14:24 | 51.47748 | -0.49432 | 246 ft | 117 kts | 88° |
| 2026-04-21 14:24 | 51.47751 | -0.48132 | 114 ft | 116 kts | 86° |
| 2026-04-21 14:24 | 51.47744 | -0.46976 | 107 ft | 100 kts | 87° |
| 2026-04-21 14:25 | 51.47736 | -0.45585 | 526 ft | 142 kts | 88° |
| 2026-04-21 14:25 | 51.47728 | -0.43944 | 1508 ft | 154 kts | 88° |
| 2026-04-21 14:25 | 51.47799 | -0.42171 | 2153 ft | 166 kts | 78° |
| 2026-04-21 14:25 | 51.48430 | -0.40609 | 2824 ft | 177 kts | 44° |
| 2026-04-21 14:26 | 51.49447 | -0.39465 | 2959 ft | 178 kts | 37° |
| 2026-04-21 14:26 | 51.50495 | -0.38415 | 2981 ft | 177 kts | 36° |
| 2026-04-21 14:26 | 51.51547 | -0.37390 | 2968 ft | 177 kts | 34° |
| 2026-04-21 14:26 | 51.52768 | -0.36987 | 2982 ft | 190 kts | 357° |
| 2026-04-21 14:27 | 51.53964 | -0.37999 | 2984 ft | 205 kts | 317° |
| 2026-04-21 14:27 | 51.54576 | -0.40094 | 2986 ft | 215 kts | 281° |
| 2026-04-21 14:27 | 51.54686 | -0.42675 | 2993 ft | 244 kts | 272° |
| 2026-04-21 14:27 | 51.54705 | -0.45423 | 2982 ft | 248 kts | 271° |
| 2026-04-21 14:28 | 51.54706 | -0.48208 | 2984 ft | 251 kts | 271° |
| 2026-04-21 14:28 | 51.54698 | -0.51007 | 2985 ft | 250 kts | 271° |
| 2026-04-21 14:28 | 51.54688 | -0.53802 | 2981 ft | 251 kts | 271° |
| 2026-04-21 14:28 | 51.54675 | -0.56597 | 2984 ft | 250 kts | 271° |
| 2026-04-21 14:29 | 51.54661 | -0.59390 | 2983 ft | 251 kts | 271° |
| 2026-04-21 14:29 | 51.54646 | -0.62190 | 2983 ft | 250 kts | 271° |
| 2026-04-21 14:29 | 51.54638 | -0.64981 | 2982 ft | 250 kts | 271° |
| 2026-04-21 14:29 | 51.54635 | -0.67766 | 2985 ft | 249 kts | 271° |
| 2026-04-21 14:30 | 51.54621 | -0.70540 | 2980 ft | 245 kts | 271° |
| 2026-04-21 14:30 | 51.54509 | -0.73182 | 2978 ft | 231 kts | 254° |
| 2026-04-21 14:30 | 51.53715 | -0.75277 | 2980 ft | 214 kts | 216° |
| 2026-04-21 14:30 | 51.52451 | -0.76354 | 2988 ft | 201 kts | 189° |
| 2026-04-21 14:31 | 51.51102 | -0.76591 | 2992 ft | 191 kts | 168° |
| 2026-04-21 14:31 | 51.49858 | -0.76083 | 2986 ft | 180 kts | 145° |
| 2026-04-21 14:31 | 51.48945 | -0.74837 | 2988 ft | 168 kts | 117° |
| 2026-04-21 14:31 | 51.48527 | -0.73142 | 2991 ft | 163 kts | 101° |
| 2026-04-21 14:32 | 51.48211 | -0.71412 | 2985 ft | 165 kts | 102° |
| 2026-04-21 14:32 | 51.47893 | -0.69700 | 3012 ft | 153 kts | 102° |
| 2026-04-21 14:32 | 51.47708 | -0.68058 | 2766 ft | 152 kts | 89° |
| 2026-04-21 14:32 | 51.47686 | -0.66341 | 2406 ft | 154 kts | 88° |
| 2026-04-21 14:33 | 51.47681 | -0.64638 | 2148 ft | 151 kts | 87° |
| 2026-04-21 14:33 | 51.47684 | -0.63006 | 1922 ft | 139 kts | 87° |
| 2026-04-21 14:33 | 51.47689 | -0.61520 | 1739 ft | 129 kts | 86° |
| 2026-04-21 14:33 | 51.47695 | -0.60109 | 1554 ft | 124 kts | 87° |
| 2026-04-21 14:34 | 51.47702 | -0.58766 | 1395 ft | 118 kts | 87° |
| 2026-04-21 14:34 | 51.47708 | -0.57441 | 1232 ft | 119 kts | 86° |
| 2026-04-21 14:34 | 51.47714 | -0.56128 | 1060 ft | 116 kts | 86° |
| 2026-04-21 14:34 | 51.47721 | -0.54818 | 905 ft | 118 kts | 86° |
| 2026-04-21 14:35 | 51.47727 | -0.53498 | 736 ft | 117 kts | 85° |
| 2026-04-21 14:35 | 51.47732 | -0.52172 | 579 ft | 120 kts | 87° |
| 2026-04-21 14:35 | 51.47741 | -0.50816 | 412 ft | 120 kts | 88° |
| 2026-04-21 14:35 | 51.47747 | -0.49487 | 247 ft | 119 kts | 87° |
| 2026-04-21 14:36 | 51.47749 | -0.48188 | 125 ft | 116 kts | 86° |
| 2026-04-21 14:36 | 51.47757 | -0.46999 | 89 ft | 85 kts | 88° |
| 2026-04-21 14:36 | 51.47759 | -0.46388 | 90 ft | 29 kts | 90° |
| 2026-04-21 14:36 | 51.47753 | -0.46238 | 91 ft | 14 kts | 106° |
| 2026-04-21 14:37 | 51.47676 | -0.46114 | 86 ft | 6 kts | 148° |
| 2026-04-21 14:37 | 51.47674 | -0.46111 | 86 ft | 1 kts | 148° |
| 2026-04-21 14:37 | 51.47647 | -0.46085 | 86 ft | 8 kts | 150° |
| 2026-04-21 14:37 | 51.47591 | -0.46104 | 87 ft | 12 kts | 254° |
| 2026-04-21 14:38 | 51.47592 | -0.46275 | 86 ft | 18 kts | 271° |
| 2026-04-21 14:38 | 51.47592 | -0.46510 | 88 ft | 24 kts | 269° |
| 2026-04-21 14:38 | 51.47592 | -0.46743 | 86 ft | 15 kts | 271° |
| 2026-04-21 14:38 | 51.47578 | -0.46906 | 89 ft | 17 kts | 258° |
| 2026-04-21 14:39 | 51.47580 | -0.47091 | 86 ft | 15 kts | 276° |
| 2026-04-21 14:39 | 51.47582 | -0.47287 | 90 ft | 21 kts | 271° |
| 2026-04-21 14:39 | 51.47581 | -0.47547 | 87 ft | 26 kts | 269° |
| 2026-04-21 14:39 | 51.47580 | -0.47853 | 86 ft | 25 kts | 269° |
| 2026-04-21 14:40 | 51.47579 | -0.48067 | 88 ft | 18 kts | 270° |
| 2026-04-21 14:40 | 51.47578 | -0.48276 | 86 ft | 16 kts | 269° |
| 2026-04-21 14:40 | 51.47519 | -0.48359 | 89 ft | 14 kts | 186° |
| 2026-04-21 14:40 | 51.47398 | -0.48360 | 86 ft | 21 kts | 180° |
| 2026-04-21 14:41 | 51.47229 | -0.48357 | 86 ft | 28 kts | 179° |
| 2026-04-21 14:41 | 51.47057 | -0.48356 | 88 ft | 17 kts | 179° |
| 2026-04-21 14:41 | 51.46938 | -0.48355 | 86 ft | 11 kts | 179° |
| 2026-04-21 14:41 | 51.46879 | -0.48404 | 86 ft | 12 kts | 256° |
| 2026-04-21 14:42 | 51.46879 | -0.48575 | 86 ft | 17 kts | 270° |
| 2026-04-21 14:42 | 51.46876 | -0.48721 | 86 ft | 13 kts | 268° |
| 2026-04-21 14:42 | 51.46877 | -0.48830 | 86 ft | 0 kts | 271° |
| 2026-04-21 14:42 | 51.46880 | -0.48844 | 88 ft | 3 kts | 293° |
| 2026-04-21 14:43 | 51.46901 | -0.48858 | 91 ft | 4 kts | 352° |
| 2026-04-21 14:43 | 51.46922 | -0.48859 | 89 ft | 2 kts | 359° |
| 2026-04-21 14:43 | 51.46931 | -0.48859 | 88 ft | 0 kts | 359° |